Tampa, FL

7:34 AM EDT on September 22, 2014 (GMT -0400)
Town and Country Hospital Area - KJ4LCL | Change Station
CLOSE
Current Station
Personal Weather Station
Location: Town 'n' Country, FL
Elevation: 20 ft
Nearby Weather Stations
Active Advisory: Flood Warning

Elev 20 ft 28.01 °N, 82.57 °W | Updated 0 second ago

Mostly Cloudy
Mostly Cloudy
75.4 °F
Feels Like 75 °F
N
0.0
Wind Variable Wind from West
Gusts 0.0 mph

Today
High -- | Low -- °F
--% Chance of Precip.
Yesterday
High -- | Low -- °F
Precip. -- in
7:18 AM 7:26 PM
Waning Crescent, 3% visible
Pressure 30.01 in
Visibility 10.0 miles
Clouds Few 2800 ft
Scattered Clouds 9000 ft
Mostly Cloudy 14000 ft
Mostly Cloudy 25000 ft
Heat Index 75 °F
Dew Point 72 °F
Humidity 88%
Rainfall 0.00 in
Snow Depth Not available.
UV 0 out of 12
Pollen 2.10 out of 12
Air Quality Not available.
Flu Activity Not available.
METAR KTPA 221053Z 14003KT 10SM FEW028 SCT090 BKN140 BKN250 24/23 A3001 RMK AO2 LTG DSNT SW SLP162 T02440228

More Conditions Fewer Conditions

Pressure 30.01 in
Visibility 10.0 miles
Clouds Few 2800 ft
Scattered Clouds 9000 ft
Mostly Cloudy 14000 ft
Mostly Cloudy 25000 ft
Heat Index 75 °F
Dew Point 72 °F
Humidity 88%
Rainfall 0.00 in
Snow Depth Not available.
UV 0 out of 12
Pollen 2.10 out of 12
Air Quality Not available.
Flu Activity Not available.
METAR KTPA 221053Z 14003KT 10SM FEW028 SCT090 BKN140 BKN250 24/23 A3001 RMK AO2 LTG DSNT SW SLP162 T02440228

More Conditions Fewer Conditions

10-Day Weather Forecast

Almanac

Astronomy

Sep. 22, 2014 Rise Set
Actual Time 7:18 AM EDT 7:26 PM EDT
Civil Twilight 6:55 AM EDT 7:50 PM EDT
Nautical Twilight 6:27 AM EDT 8:17 PM EDT
Astronomical Twilight 6:00 AM EDT 8:44 PM EDT
Moon 5:51 AM EDT 6:30 PM EDT
Length of Visible Light 12h 54m
Length of Day
12h 08m
Tomorrow will be 1m 40s shorter.
Waning Crescent, 3% of the Moon is Illuminated
Today
Waning Crescent
Sep 24
New
Oct 1
First Quarter
Oct 8
Full
Oct 15
Last Quarter

Today's Extremes

State Highs State Lows

Community

WunderPhotos

Upload Photos

1,755,409 photos uploaded!

Nearby

Snow Depth

Station Depth Elevation
No new snow has been reported.

Earthquake Activity

City Distance Mag. Time & Date
No recent earthquake activity has been reported nearby.
Minimum magnitude displayed is 2.5.

Coastal Water Temperatures

Place Temperature
St Petersburg, FL 84.9 °F
Old Port Tampa, FL 82.9 °F

Nearby Weather Stations